createdAt,value
2018-11-12T00:01:38.197Z,13.30
2018-11-12T00:04:06.523Z,13.30
2018-11-12T00:06:34.868Z,13.30
2018-11-12T00:09:03.265Z,13.30
2018-11-12T00:11:31.613Z,13.30
2018-11-12T00:13:59.935Z,13.30
2018-11-12T00:16:28.302Z,13.30
2018-11-12T00:18:56.634Z,13.30
2018-11-12T00:21:24.972Z,13.20
2018-11-12T00:23:53.319Z,13.20
2018-11-12T00:26:21.620Z,13.20
2018-11-12T00:28:49.914Z,13.20
2018-11-12T00:31:18.354Z,13.10
2018-11-12T00:33:46.672Z,13.10
2018-11-12T00:36:15.120Z,13.10
2018-11-12T00:38:43.464Z,13.00
2018-11-12T00:41:11.811Z,13.00
2018-11-12T00:43:40.125Z,13.00
2018-11-12T00:46:08.498Z,12.90
2018-11-12T00:48:36.813Z,12.90
2018-11-12T00:51:05.480Z,12.90
2018-11-12T00:53:33.900Z,12.80
2018-11-12T00:56:02.278Z,12.80
2018-11-12T00:58:30.614Z,12.80
2018-11-12T01:00:58.932Z,12.80
2018-11-12T01:03:27.279Z,12.80
2018-11-12T01:05:55.584Z,12.80
2018-11-12T01:08:24.004Z,12.80
2018-11-12T01:10:52.406Z,12.80
2018-11-12T01:13:20.729Z,12.70
2018-11-12T01:15:49.059Z,12.80
2018-11-12T01:18:17.411Z,12.70
2018-11-12T01:20:45.732Z,12.70
2018-11-12T01:23:14.065Z,12.70
2018-11-12T01:25:42.380Z,12.70
2018-11-12T01:28:10.787Z,12.70
2018-11-12T01:30:39.120Z,12.70
2018-11-12T01:33:07.487Z,12.60
2018-11-12T01:35:35.899Z,12.60
2018-11-12T01:38:04.255Z,12.60
2018-11-12T01:40:32.601Z,12.60
2018-11-12T01:43:00.940Z,12.60
2018-11-12T01:45:29.266Z,12.60
2018-11-12T01:47:57.650Z,12.60
2018-11-12T01:50:25.951Z,12.60
2018-11-12T01:52:54.235Z,12.60
2018-11-12T01:55:22.599Z,12.60
2018-11-12T01:57:50.933Z,12.50
2018-11-12T02:00:21.341Z,12.50
2018-11-12T02:02:50.918Z,12.50
2018-11-12T02:05:19.561Z,12.50
2018-11-12T02:07:47.901Z,12.50
2018-11-12T02:10:17.303Z,12.50
2018-11-12T02:12:45.677Z,12.50
2018-11-12T02:15:15.884Z,12.50
2018-11-12T02:17:45.272Z,12.50
2018-11-12T02:20:14.683Z,12.50
2018-11-12T02:22:43.985Z,12.50
2018-11-12T02:25:12.900Z,12.40
2018-11-12T02:27:41.242Z,12.40
2018-11-12T02:30:16.739Z,12.40
2018-11-12T02:32:45.059Z,12.40
2018-11-12T02:35:13.414Z,12.40
2018-11-12T02:37:41.768Z,12.40
2018-11-12T02:40:12.282Z,12.40
2018-11-12T02:42:41.243Z,12.40
2018-11-12T02:45:10.681Z,12.30
2018-11-12T02:47:39.233Z,12.30
2018-11-12T02:50:08.938Z,12.30
2018-11-12T02:52:37.281Z,12.30
2018-11-12T02:55:07.049Z,12.30
2018-11-12T02:57:35.499Z,12.30
2018-11-12T03:00:04.861Z,12.30
2018-11-12T03:02:33.185Z,12.30
2018-11-12T03:05:01.527Z,12.30
2018-11-12T03:07:29.905Z,12.20
2018-11-12T03:09:58.197Z,12.20
2018-11-12T03:12:26.523Z,12.20
2018-11-12T03:14:54.826Z,12.20
2018-11-12T03:17:23.203Z,12.20
2018-11-12T03:19:51.647Z,12.10
2018-11-12T03:22:19.976Z,12.20
2018-11-12T03:24:48.440Z,12.10
2018-11-12T03:27:16.776Z,12.10
2018-11-12T03:29:45.189Z,12.20
2018-11-12T03:32:13.514Z,12.10
2018-11-12T03:34:41.894Z,12.10
2018-11-12T03:37:10.254Z,12.10
2018-11-12T03:39:38.663Z,12.10
2018-11-12T03:42:07.106Z,12.10
2018-11-12T03:44:35.456Z,12.10
2018-11-12T03:47:03.800Z,12.20
2018-11-12T03:49:32.112Z,12.20
2018-11-12T03:52:00.498Z,12.20
2018-11-12T03:54:28.847Z,12.20
2018-11-12T03:56:57.183Z,12.20
2018-11-12T03:59:25.524Z,12.20
2018-11-12T04:01:53.920Z,12.20
2018-11-12T04:04:22.303Z,12.20
2018-11-12T04:06:50.655Z,12.20
2018-11-12T04:09:19.056Z,12.30
2018-11-12T04:11:47.444Z,12.20
2018-11-12T04:14:15.880Z,12.30
2018-11-12T04:16:45.104Z,12.30
2018-11-12T04:19:13.447Z,12.30
2018-11-12T04:21:41.815Z,12.30
2018-11-12T04:24:10.146Z,12.30
2018-11-12T04:26:38.488Z,12.30
2018-11-12T04:29:06.765Z,12.30
2018-11-12T04:31:35.114Z,12.30
2018-11-12T04:34:03.425Z,12.40
2018-11-12T04:36:31.832Z,12.30
2018-11-12T04:39:00.168Z,12.40
2018-11-12T04:41:28.505Z,12.40
2018-11-12T04:43:56.859Z,12.40
2018-11-12T04:46:25.174Z,12.40
2018-11-12T04:48:53.501Z,12.40
2018-11-12T04:51:21.808Z,12.40
2018-11-12T04:53:50.183Z,12.40
2018-11-12T04:56:18.471Z,12.50
2018-11-12T04:58:46.810Z,12.40
2018-11-12T05:01:15.120Z,12.40
2018-11-12T05:03:43.472Z,12.40
2018-11-12T05:06:11.773Z,12.40
2018-11-12T05:08:40.096Z,12.40
2018-11-12T05:11:08.443Z,12.40
2018-11-12T05:13:36.804Z,12.50
2018-11-12T05:16:05.736Z,12.50
2018-11-12T05:18:34.116Z,12.50
2018-11-12T05:21:02.454Z,12.50
2018-11-12T05:23:30.887Z,12.50
2018-11-12T05:25:59.207Z,12.50
2018-11-12T05:28:27.543Z,12.50
2018-11-12T05:30:55.947Z,12.50
2018-11-12T05:33:24.312Z,12.50
2018-11-12T05:35:52.645Z,12.50
2018-11-12T05:38:21.162Z,12.50
2018-11-12T05:40:49.499Z,12.60
2018-11-12T05:43:17.960Z,12.50
2018-11-12T05:45:46.312Z,12.50
2018-11-12T05:48:14.649Z,12.50
2018-11-12T05:50:42.991Z,12.60
2018-11-12T05:53:11.356Z,12.60
2018-11-12T05:55:39.640Z,12.70
2018-11-12T05:58:09.549Z,12.70
2018-11-12T06:00:38.005Z,12.70
2018-11-12T06:03:06.416Z,12.70
2018-11-12T06:05:35.243Z,12.70
2018-11-12T06:08:10.112Z,12.70
2018-11-12T06:10:38.504Z,12.70
2018-11-12T06:13:06.960Z,12.70
2018-11-12T06:15:35.369Z,12.70
2018-11-12T06:18:03.834Z,12.70
2018-11-12T06:20:33.107Z,12.70
2018-11-12T06:23:01.574Z,12.70
2018-11-12T06:25:32.249Z,12.80
2018-11-12T06:28:00.599Z,12.80
2018-11-12T06:30:31.624Z,12.80
2018-11-12T06:33:00.005Z,12.80
2018-11-12T06:35:28.408Z,12.90
2018-11-12T06:37:57.096Z,12.90
2018-11-12T06:40:26.429Z,12.80
2018-11-12T06:42:54.812Z,12.80
2018-11-12T06:45:26.478Z,12.90
2018-11-12T06:47:55.729Z,12.90
2018-11-12T06:50:26.466Z,12.90
2018-11-12T06:52:54.838Z,12.90
2018-11-12T06:55:23.620Z,12.90
2018-11-12T06:57:52.187Z,12.90
2018-11-12T07:00:25.894Z,13.00
2018-11-12T07:02:54.264Z,13.00
2018-11-12T07:05:22.992Z,12.90
2018-11-12T07:07:51.290Z,12.90
2018-11-12T07:10:20.951Z,12.90
2018-11-12T07:12:50.031Z,13.00
2018-11-12T07:15:19.677Z,13.00
2018-11-12T07:17:48.039Z,13.00
2018-11-12T07:20:18.161Z,13.00
2018-11-12T07:22:46.708Z,13.10
2018-11-12T07:25:16.161Z,13.00
2018-11-12T07:27:44.560Z,13.10
2018-11-12T07:30:15.464Z,13.00
2018-11-12T07:32:44.136Z,13.10
2018-11-12T07:35:13.766Z,13.10
2018-11-12T07:37:43.697Z,13.10
2018-11-12T07:40:12.757Z,13.10
2018-11-12T07:42:41.420Z,13.10
2018-11-12T07:45:14.060Z,13.10
2018-11-12T07:47:43.539Z,13.10
2018-11-12T07:50:13.676Z,13.10
2018-11-12T07:52:42.250Z,13.10
2018-11-12T07:55:15.562Z,13.10
2018-11-12T07:57:44.784Z,13.10
2018-11-12T08:00:18.928Z,13.20
2018-11-12T08:02:48.347Z,13.20
2018-11-12T08:05:17.136Z,13.20
2018-11-12T08:07:46.003Z,13.20
2018-11-12T08:10:16.972Z,13.20
2018-11-12T08:12:45.851Z,13.30
2018-11-12T08:15:15.763Z,13.30
2018-11-12T08:17:44.272Z,13.30
2018-11-12T08:20:14.356Z,13.40
2018-11-12T08:22:43.639Z,13.40
2018-11-12T08:25:12.764Z,13.40
2018-11-12T08:27:41.552Z,13.40
2018-11-12T08:30:15.390Z,13.40
2018-11-12T08:32:44.655Z,13.40
2018-11-12T08:35:13.636Z,13.40
2018-11-12T08:37:42.124Z,13.40
2018-11-12T08:40:12.082Z,13.40
2018-11-12T08:42:40.624Z,13.40
2018-11-12T08:45:09.709Z,13.50
2018-11-12T08:47:38.599Z,13.50
2018-11-12T08:50:10.398Z,13.50
2018-11-12T08:52:39.347Z,13.60
2018-11-12T08:55:08.851Z,13.60
2018-11-12T08:57:37.196Z,13.60
2018-11-12T09:00:08.809Z,13.70
2018-11-12T09:02:37.175Z,13.70
2018-11-12T09:05:07.041Z,13.80
2018-11-12T09:07:35.439Z,13.80
2018-11-12T09:10:03.826Z,13.80
2018-11-12T09:12:32.309Z,13.90
2018-11-12T09:15:00.741Z,13.90
2018-11-12T09:17:29.056Z,14.00
2018-11-12T09:19:57.553Z,14.00
2018-11-12T09:22:25.962Z,14.10
2018-11-12T09:24:54.305Z,14.10
2018-11-12T09:27:22.748Z,14.20
2018-11-12T09:29:51.028Z,14.20
2018-11-12T09:32:19.382Z,14.20
2018-11-12T09:34:47.720Z,14.20
2018-11-12T09:37:16.091Z,14.20
2018-11-12T09:39:44.418Z,14.30
2018-11-12T09:42:12.809Z,14.30
2018-11-12T09:44:41.110Z,14.30
2018-11-12T09:47:09.480Z,14.30
2018-11-12T09:49:37.864Z,14.30
2018-11-12T09:52:06.702Z,14.40
2018-11-12T09:54:35.294Z,14.40
2018-11-12T09:57:03.493Z,14.40
2018-11-12T09:59:31.849Z,14.40
2018-11-12T10:02:00.771Z,14.40
2018-11-12T10:04:29.933Z,14.50
2018-11-12T10:06:59.657Z,14.50
2018-11-12T10:09:29.137Z,14.50
2018-11-12T10:11:56.828Z,14.50
2018-11-12T10:14:26.384Z,14.50
2018-11-12T10:16:55.665Z,14.60
2018-11-12T10:19:20.464Z,14.60
2018-11-12T10:21:48.933Z,14.60
2018-11-12T10:24:17.376Z,14.60
2018-11-12T10:26:45.709Z,14.60
2018-11-12T10:29:14.036Z,14.60
2018-11-12T10:34:22.936Z,14.70
2018-11-12T10:36:51.330Z,14.70
2018-11-12T10:39:19.797Z,14.70
2018-11-12T10:41:48.140Z,14.70
2018-11-12T10:44:16.488Z,14.70
2018-11-12T10:46:44.905Z,14.70
2018-11-12T10:49:13.232Z,14.70
2018-11-12T10:51:41.660Z,14.80
2018-11-12T10:54:10.207Z,14.80
2018-11-12T10:56:38.423Z,14.80
2018-11-12T10:59:07.434Z,14.80
2018-11-12T11:02:38.799Z,14.80
2018-11-12T11:05:07.247Z,14.90
2018-11-12T11:07:35.632Z,14.90
2018-11-12T11:10:04.040Z,14.90
2018-11-12T11:12:32.444Z,14.90
2018-11-12T11:15:00.753Z,14.90
2018-11-12T11:17:29.135Z,14.90
2018-11-12T11:19:57.485Z,14.90
2018-11-12T11:22:25.843Z,14.90
2018-11-12T11:24:54.145Z,14.90
2018-11-12T11:27:22.534Z,15.00
2018-11-12T11:29:50.831Z,15.00
2018-11-12T11:32:19.300Z,15.00
2018-11-12T11:34:47.625Z,15.10
2018-11-12T11:37:15.965Z,15.10
2018-11-12T11:39:44.291Z,15.10
2018-11-12T11:42:12.606Z,15.10
2018-11-12T11:44:40.916Z,15.20
2018-11-12T11:47:09.362Z,15.10
2018-11-12T11:49:37.745Z,15.20
2018-11-12T11:52:06.085Z,15.20
2018-11-12T11:54:34.439Z,15.30
2018-11-12T11:57:02.996Z,15.30
2018-11-12T11:59:31.313Z,15.30
2018-11-12T12:01:59.696Z,15.40
2018-11-12T12:04:28.041Z,15.50
2018-11-12T12:06:56.508Z,15.60
2018-11-12T12:09:24.918Z,15.60
2018-11-12T12:11:53.209Z,15.70
2018-11-12T12:14:21.545Z,15.80
2018-11-12T12:16:49.886Z,15.80
2018-11-12T12:19:18.249Z,15.90
2018-11-12T12:21:47.251Z,15.90
2018-11-12T12:24:15.844Z,16.00
2018-11-12T12:26:44.236Z,16.10
2018-11-12T12:29:12.536Z,16.10
2018-11-12T12:31:41.038Z,16.20
2018-11-12T12:34:09.404Z,16.30
2018-11-12T12:36:37.848Z,16.30
2018-11-12T12:39:08.467Z,16.40
2018-11-12T12:41:36.871Z,16.40
2018-11-12T12:44:05.599Z,16.40
2018-11-12T12:46:33.896Z,16.40
2018-11-12T12:49:02.214Z,16.50
2018-11-12T12:51:30.601Z,16.50
2018-11-12T12:53:58.931Z,16.50
2018-11-12T12:56:27.336Z,16.60
2018-11-12T12:58:55.551Z,16.80
2018-11-12T13:01:23.823Z,16.80
2018-11-12T13:03:52.435Z,16.90
2018-11-12T13:06:20.893Z,16.90
2018-11-12T13:08:49.202Z,16.90
2018-11-12T13:11:17.556Z,17.00
2018-11-12T13:13:45.960Z,17.00
2018-11-12T13:16:14.231Z,17.00
2018-11-12T13:18:42.599Z,17.10
2018-11-12T13:21:10.932Z,17.10
2018-11-12T13:23:39.282Z,17.20
2018-11-12T13:26:07.583Z,17.20
2018-11-12T13:28:35.870Z,17.20
2018-11-12T13:31:04.229Z,17.30
2018-11-12T13:33:32.673Z,17.30
2018-11-12T13:36:00.977Z,17.30
2018-11-12T13:38:29.333Z,17.40
2018-11-12T13:40:57.748Z,17.40
2018-11-12T13:43:26.123Z,17.40
2018-11-12T13:45:54.431Z,17.40
2018-11-12T13:48:22.753Z,17.40
2018-11-12T13:50:51.104Z,17.40
2018-11-12T13:53:19.399Z,17.40
2018-11-12T13:55:47.745Z,17.40
2018-11-12T13:58:16.060Z,17.40
2018-11-12T14:00:44.388Z,17.40
2018-11-12T14:03:12.688Z,17.40
2018-11-12T14:05:41.021Z,17.40
2018-11-12T14:08:09.360Z,17.40
2018-11-12T14:10:37.726Z,17.40
2018-11-12T14:13:06.116Z,17.50
2018-11-12T14:15:34.440Z,17.60
2018-11-12T14:18:02.758Z,17.50
2018-11-12T14:20:31.190Z,17.60
2018-11-12T14:23:05.863Z,17.60
2018-11-12T14:25:34.178Z,17.60
2018-11-12T14:28:02.541Z,17.60
2018-11-12T14:30:31.177Z,17.60
2018-11-12T14:32:59.655Z,17.60
2018-11-12T14:35:28.622Z,17.70
2018-11-12T14:37:56.914Z,17.60
2018-11-12T14:40:25.292Z,17.60
2018-11-12T14:42:53.594Z,17.60
2018-11-12T14:45:22.546Z,17.60
2018-11-12T14:47:51.279Z,17.50
2018-11-12T14:50:19.800Z,17.40
2018-11-12T14:52:48.505Z,17.40
2018-11-12T14:55:17.560Z,17.40
2018-11-12T14:57:45.841Z,17.30
2018-11-12T15:00:19.496Z,17.30
2018-11-12T15:02:47.805Z,17.30
2018-11-12T15:05:17.227Z,17.20
2018-11-12T15:07:45.609Z,17.20
2018-11-12T15:10:14.331Z,17.10
2018-11-12T15:12:43.286Z,17.10
2018-11-12T15:15:12.226Z,17.10
2018-11-12T15:17:40.517Z,17.00
2018-11-12T15:20:11.552Z,17.00
2018-11-12T15:22:40.032Z,17.00
2018-11-12T15:25:11.380Z,16.90
2018-11-12T15:27:39.862Z,17.00
2018-11-12T15:30:11.936Z,16.90
2018-11-12T15:32:40.730Z,16.90
2018-11-12T15:35:09.640Z,16.90
2018-11-12T15:37:38.100Z,16.80
2018-11-12T15:40:07.687Z,16.80
2018-11-12T15:42:36.383Z,16.80
2018-11-12T15:45:05.454Z,16.70
2018-11-12T15:47:33.803Z,16.70
2018-11-12T15:50:02.196Z,16.70
2018-11-12T15:52:30.554Z,16.70
2018-11-12T15:54:58.892Z,16.70
2018-11-12T15:57:27.381Z,16.70
2018-11-12T15:59:55.657Z,16.70
2018-11-12T16:02:24.069Z,16.60
2018-11-12T16:04:52.408Z,16.60
2018-11-12T16:07:20.853Z,16.60
2018-11-12T16:09:49.215Z,16.60
2018-11-12T16:12:17.698Z,16.60
2018-11-12T16:14:46.124Z,16.50
2018-11-12T16:17:14.558Z,16.50
2018-11-12T16:19:42.962Z,16.50
2018-11-12T16:22:11.383Z,16.50
2018-11-12T16:24:39.837Z,16.50
2018-11-12T16:27:08.241Z,16.00
2018-11-12T16:29:36.620Z,15.90
2018-11-12T16:32:05.074Z,15.80
2018-11-12T16:34:33.421Z,15.70
2018-11-12T16:37:01.865Z,15.60
2018-11-12T16:39:30.300Z,15.50
2018-11-12T16:41:58.645Z,15.40
2018-11-12T16:44:27.027Z,15.30
2018-11-12T16:46:55.339Z,15.30
2018-11-12T16:49:23.793Z,15.20
2018-11-12T16:51:52.167Z,15.10
2018-11-12T16:54:20.739Z,15.10
2018-11-12T16:56:49.134Z,15.10
2018-11-12T16:59:17.562Z,15.00
2018-11-12T17:01:45.941Z,15.00
2018-11-12T17:04:14.523Z,15.00
2018-11-12T17:06:42.836Z,15.00
2018-11-12T17:09:12.612Z,15.00
2018-11-12T17:11:40.921Z,15.00
2018-11-12T17:14:09.481Z,15.00
2018-11-12T17:16:38.231Z,14.90
2018-11-12T17:19:06.576Z,15.00
2018-11-12T17:21:35.097Z,15.00
2018-11-12T17:24:03.683Z,15.00
2018-11-12T17:26:32.147Z,14.90
2018-11-12T17:29:00.489Z,14.90
2018-11-12T17:31:29.235Z,14.90
2018-11-12T17:33:57.622Z,14.90
2018-11-12T17:36:25.995Z,14.90
2018-11-12T17:38:54.332Z,14.90
2018-11-12T17:41:22.940Z,14.90
2018-11-12T17:43:51.294Z,14.90
2018-11-12T17:46:19.683Z,14.90
2018-11-12T17:48:48.066Z,14.90
2018-11-12T17:51:16.481Z,14.90
2018-11-12T17:53:44.820Z,14.90
2018-11-12T17:56:13.213Z,14.90
2018-11-12T17:58:41.767Z,14.90
2018-11-12T18:01:10.114Z,14.90
2018-11-12T18:03:38.965Z,14.90
2018-11-12T18:06:08.145Z,14.90
2018-11-12T18:08:36.491Z,14.80
2018-11-12T18:11:04.966Z,14.90
2018-11-12T18:13:33.451Z,14.80
2018-11-12T18:16:01.808Z,14.80
2018-11-12T18:18:30.139Z,14.80
2018-11-12T18:20:58.476Z,14.80
2018-11-12T18:23:26.796Z,14.80
2018-11-12T18:25:55.137Z,14.80
2018-11-12T18:28:23.457Z,14.80
2018-11-12T18:30:52.195Z,14.80
2018-11-12T18:33:20.365Z,14.80
2018-11-12T18:35:48.794Z,14.80
2018-11-12T18:38:17.187Z,14.70
2018-11-12T18:40:45.623Z,14.70
2018-11-12T18:43:14.221Z,14.70
2018-11-12T18:45:42.727Z,14.70
2018-11-12T18:48:11.240Z,14.70
2018-11-12T18:50:39.650Z,14.70
2018-11-12T18:53:08.045Z,14.60
2018-11-12T18:55:36.505Z,14.70
2018-11-12T18:58:05.605Z,14.70
2018-11-12T19:00:33.980Z,14.60
2018-11-12T19:03:02.679Z,14.60
2018-11-12T19:05:32.105Z,14.60
2018-11-12T19:08:01.303Z,14.60
2018-11-12T19:10:31.143Z,14.60
2018-11-12T19:12:59.624Z,14.60
2018-11-12T19:15:34.864Z,14.50
2018-11-12T19:18:05.631Z,14.60
2018-11-12T19:20:34.054Z,14.60
2018-11-12T19:23:02.538Z,14.60
2018-11-12T19:25:31.120Z,14.60
2018-11-12T19:27:59.518Z,14.60
2018-11-12T19:30:28.635Z,14.60
2018-11-12T19:32:57.072Z,14.60
2018-11-12T19:35:26.814Z,14.60
2018-11-12T19:37:55.255Z,14.60
2018-11-12T19:40:25.044Z,14.60
2018-11-12T19:42:54.287Z,14.60
2018-11-12T19:45:22.731Z,14.60
2018-11-12T19:47:51.791Z,14.60
2018-11-12T19:50:21.368Z,14.60
2018-11-12T19:52:50.903Z,14.60
2018-11-12T19:55:19.427Z,14.50
2018-11-12T19:57:49.556Z,14.60
2018-11-12T20:00:19.420Z,14.50
2018-11-12T20:02:49.034Z,14.50
2018-11-12T20:05:20.845Z,14.40
2018-11-12T20:07:49.273Z,14.40
2018-11-12T20:10:25.442Z,14.40
2018-11-12T20:12:54.024Z,14.40
2018-11-12T20:15:27.563Z,14.40
2018-11-12T20:17:56.608Z,14.40
2018-11-12T20:20:28.742Z,14.40
2018-11-12T20:22:57.139Z,14.40
2018-11-12T20:25:25.534Z,14.30
2018-11-12T20:27:54.923Z,14.40
2018-11-12T20:30:26.990Z,14.40
2018-11-12T20:32:55.479Z,14.40
2018-11-12T20:35:23.918Z,14.40
2018-11-12T20:37:52.270Z,14.40
2018-11-12T20:40:20.652Z,14.30
2018-11-12T20:42:51.236Z,14.30
2018-11-12T20:45:20.716Z,14.30
2018-11-12T20:47:52.319Z,14.30
2018-11-12T20:50:20.922Z,14.30
2018-11-12T20:52:49.312Z,14.30
2018-11-12T20:55:18.239Z,14.30
2018-11-12T20:57:47.440Z,14.30
2018-11-12T21:00:21.651Z,14.30
2018-11-12T21:02:51.051Z,14.30
2018-11-12T21:05:20.949Z,14.30
2018-11-12T21:07:49.354Z,14.20
2018-11-12T21:10:18.653Z,14.20
2018-11-12T21:12:49.704Z,14.20
2018-11-12T21:15:23.391Z,14.10
2018-11-12T21:17:52.247Z,14.00
2018-11-12T21:20:22.996Z,14.10
2018-11-12T21:22:52.286Z,14.10
2018-11-12T21:25:22.136Z,14.10
2018-11-12T21:27:50.676Z,14.10
2018-11-12T21:30:20.523Z,14.10
2018-11-12T21:32:49.092Z,14.10
2018-11-12T21:35:17.480Z,14.10
2018-11-12T21:37:46.301Z,14.10
2018-11-12T21:40:17.525Z,14.10
2018-11-12T21:42:45.900Z,14.10
2018-11-12T21:45:15.720Z,14.10
2018-11-12T21:47:44.374Z,14.10
2018-11-12T21:50:14.611Z,14.10
2018-11-12T21:52:42.997Z,14.10
2018-11-12T21:55:12.088Z,14.10
2018-11-12T21:57:41.096Z,14.20
2018-11-12T22:00:22.701Z,14.20
2018-11-12T22:02:54.780Z,14.20
2018-11-12T22:05:23.440Z,14.20
2018-11-12T22:07:51.839Z,14.20
2018-11-12T22:10:20.231Z,14.20
